createdAt,value
2023-02-14T00:00:02.921Z,3.3
2023-02-14T00:02:02.596Z,3.3
2023-02-14T00:04:02.467Z,3.3
2023-02-14T00:06:06.173Z,3.3
2023-02-14T00:08:02.615Z,3.3
2023-02-14T00:10:03.153Z,3.3
2023-02-14T00:12:02.699Z,3.3
2023-02-14T00:14:11.985Z,3.4
2023-02-14T00:16:03.555Z,3.3
2023-02-14T00:18:03.160Z,3.3
2023-02-14T00:20:02.615Z,3.3
2023-02-14T00:22:03.677Z,3.3
2023-02-14T00:24:02.463Z,3.3
2023-02-14T00:26:02.522Z,3.3
2023-02-14T00:28:02.409Z,3.3
2023-02-14T00:30:02.915Z,3.3
2023-02-14T00:32:04.053Z,3.2
2023-02-14T00:34:02.459Z,3.2
2023-02-14T00:36:03.636Z,3.2
2023-02-14T00:38:02.400Z,3.2
2023-02-14T00:40:03.324Z,3.1
2023-02-14T00:42:02.392Z,3.0
2023-02-14T00:44:02.881Z,2.9
2023-02-14T00:46:02.517Z,2.8
2023-02-14T00:48:02.749Z,2.8
2023-02-14T00:50:03.896Z,2.7
2023-02-14T00:52:02.383Z,2.6
2023-02-14T00:54:03.788Z,2.6
2023-02-14T00:56:04.314Z,2.5
2023-02-14T00:58:02.394Z,2.4
2023-02-14T01:00:02.950Z,2.4
2023-02-14T01:02:02.662Z,2.3
2023-02-14T01:04:02.472Z,2.3
2023-02-14T01:06:03.572Z,2.3
2023-02-14T01:08:03.315Z,2.3
2023-02-14T01:10:02.449Z,2.2
2023-02-14T01:12:03.250Z,2.2
2023-02-14T01:14:02.950Z,2.2
2023-02-14T01:16:07.953Z,2.2
2023-02-14T01:18:02.379Z,2.1
2023-02-14T01:20:03.291Z,2.1
2023-02-14T01:22:02.521Z,2.1
2023-02-14T01:24:05.426Z,2.1
2023-02-14T01:26:06.028Z,2.1
2023-02-14T01:28:02.796Z,2.1
2023-02-14T01:30:02.473Z,2.1
2023-02-14T01:32:03.355Z,2.1
2023-02-14T01:34:03.423Z,2.1
2023-02-14T01:36:03.149Z,2.1
2023-02-14T01:38:03.166Z,2.1
2023-02-14T01:40:03.657Z,2.1
2023-02-14T01:42:02.410Z,2.1
2023-02-14T01:44:06.348Z,2.1
2023-02-14T01:46:02.475Z,2.1
2023-02-14T01:48:03.443Z,2.1
2023-02-14T01:50:08.229Z,2.1
2023-02-14T01:52:07.534Z,2.1
2023-02-14T01:54:04.136Z,2.1
2023-02-14T01:56:09.357Z,2.1
2023-02-14T01:58:08.304Z,2.2
2023-02-14T02:00:14.241Z,2.1
2023-02-14T02:02:03.529Z,2.1
2023-02-14T02:04:07.619Z,2.1
2023-02-14T02:06:09.770Z,2.1
2023-02-14T02:08:02.886Z,2.1
2023-02-14T02:10:06.102Z,2.1
2023-02-14T02:12:03.803Z,2.1
2023-02-14T02:14:04.490Z,2.1
2023-02-14T02:16:21.509Z,2.1
2023-02-14T02:18:11.554Z,2.1
2023-02-14T02:20:21.738Z,2.1
2023-02-14T02:22:18.857Z,2.2
2023-02-14T02:24:13.950Z,2.1
2023-02-14T02:26:21.483Z,2.1
2023-02-14T02:28:20.538Z,2.1
2023-02-14T02:30:21.551Z,2.2
2023-02-14T02:32:21.667Z,2.2
2023-02-14T02:34:20.124Z,2.2
2023-02-14T02:36:18.854Z,2.2
2023-02-14T02:38:18.402Z,2.2
2023-02-14T02:40:15.795Z,2.3
2023-02-14T02:42:10.807Z,2.3
2023-02-14T02:44:12.884Z,2.3
2023-02-14T02:46:15.225Z,2.3
2023-02-14T02:48:09.828Z,2.3
2023-02-14T02:50:23.556Z,2.3
2023-02-14T02:52:17.229Z,2.3
2023-02-14T02:54:09.918Z,2.3
2023-02-14T02:56:18.808Z,2.3
2023-02-14T02:58:04.275Z,2.3
2023-02-14T03:00:06.160Z,2.3
2023-02-14T03:02:09.912Z,2.3
2023-02-14T03:04:17.207Z,2.2
2023-02-14T03:06:02.782Z,2.2
2023-02-14T03:08:03.418Z,2.2
2023-02-14T03:10:08.092Z,2.1
2023-02-14T03:12:17.122Z,2.0
2023-02-14T03:14:13.415Z,1.9
2023-02-14T03:16:21.428Z,1.8
2023-02-14T03:18:13.441Z,1.8
2023-02-14T03:20:20.271Z,1.8
2023-02-14T03:22:14.183Z,1.7
2023-02-14T03:24:09.980Z,1.7
2023-02-14T03:26:14.595Z,1.7
2023-02-14T03:28:12.027Z,1.7
2023-02-14T03:30:09.862Z,1.6
2023-02-14T03:32:11.609Z,1.6
2023-02-14T03:34:10.799Z,1.6
2023-02-14T03:36:11.299Z,1.6
2023-02-14T03:38:08.876Z,1.6
2023-02-14T03:40:09.898Z,1.5
2023-02-14T03:42:10.451Z,1.4
2023-02-14T03:44:06.798Z,1.4
2023-02-14T03:46:07.459Z,1.3
2023-02-14T03:48:07.889Z,1.2
2023-02-14T03:50:07.433Z,1.2
2023-02-14T03:52:04.853Z,1.1
2023-02-14T03:54:06.990Z,1.1
2023-02-14T03:56:09.010Z,0.9
2023-02-14T03:58:11.444Z,0.9
2023-02-14T04:00:03.382Z,0.8
2023-02-14T04:02:09.081Z,0.8
2023-02-14T04:04:06.264Z,0.8
2023-02-14T04:06:03.036Z,0.8
2023-02-14T04:08:02.834Z,0.8
2023-02-14T04:10:03.014Z,0.7
2023-02-14T04:12:02.409Z,0.7
2023-02-14T04:14:03.475Z,0.8
2023-02-14T04:16:03.342Z,0.7
2023-02-14T04:18:11.839Z,0.8
2023-02-14T04:20:03.298Z,0.8
2023-02-14T04:22:02.410Z,0.7
2023-02-14T04:24:03.218Z,0.7
2023-02-14T04:26:03.767Z,0.7
2023-02-14T04:28:02.394Z,0.7
2023-02-14T04:30:02.460Z,0.7
2023-02-14T04:32:02.838Z,0.7
2023-02-14T04:34:02.422Z,0.7
2023-02-14T04:36:02.598Z,0.7
2023-02-14T04:38:03.819Z,0.7
2023-02-14T04:40:03.238Z,0.7
2023-02-14T04:42:03.332Z,0.8
2023-02-14T04:44:02.675Z,0.8
2023-02-14T04:46:02.375Z,0.8
2023-02-14T04:48:02.623Z,0.8
2023-02-14T04:50:03.310Z,0.8
2023-02-14T04:52:03.063Z,0.8
2023-02-14T04:54:02.396Z,0.8
2023-02-14T04:56:02.677Z,0.9
2023-02-14T04:58:02.395Z,0.9
2023-02-14T05:00:02.881Z,0.9
2023-02-14T05:02:02.621Z,0.9
2023-02-14T05:04:02.705Z,0.9
2023-02-14T05:06:02.988Z,0.8
2023-02-14T05:08:02.723Z,0.8
2023-02-14T05:10:02.438Z,0.8
2023-02-14T05:12:02.781Z,0.8
2023-02-14T05:14:03.033Z,0.8
2023-02-14T05:16:03.164Z,0.8
2023-02-14T05:18:05.248Z,0.8
2023-02-14T05:20:05.474Z,0.8
2023-02-14T05:22:02.434Z,0.9
2023-02-14T05:24:03.417Z,0.8
2023-02-14T05:26:02.432Z,0.8
2023-02-14T05:28:02.365Z,0.8
2023-02-14T05:30:02.557Z,0.8
2023-02-14T05:32:02.686Z,0.8
2023-02-14T05:34:02.465Z,0.8
2023-02-14T05:36:03.794Z,0.8
2023-02-14T05:38:03.144Z,0.8
2023-02-14T05:40:02.397Z,0.7
2023-02-14T05:42:03.023Z,0.7
2023-02-14T05:44:02.695Z,0.7
2023-02-14T05:46:02.463Z,0.6
2023-02-14T05:48:02.874Z,0.6
2023-02-14T05:50:02.417Z,0.6
2023-02-14T05:52:02.395Z,0.5
2023-02-14T05:54:02.412Z,0.5
2023-02-14T05:56:03.809Z,0.5
2023-02-14T05:58:02.596Z,0.5
2023-02-14T06:00:06.102Z,0.5
2023-02-14T06:02:02.479Z,0.5
2023-02-14T06:04:02.549Z,0.5
2023-02-14T06:06:02.547Z,0.4
2023-02-14T06:08:02.684Z,0.4
2023-02-14T06:10:02.402Z,0.4
2023-02-14T06:12:03.494Z,0.4
2023-02-14T06:14:02.462Z,0.3
2023-02-14T06:16:04.550Z,0.3
2023-02-14T06:18:03.957Z,0.4
2023-02-14T06:20:02.603Z,0.4
2023-02-14T06:22:02.582Z,0.4
2023-02-14T06:24:03.056Z,0.4
2023-02-14T06:26:03.356Z,0.4
2023-02-14T06:28:02.452Z,0.4
2023-02-14T06:30:02.458Z,0.4
2023-02-14T06:32:06.387Z,0.3
2023-02-14T06:34:02.526Z,0.3
2023-02-14T06:36:02.972Z,0.3
2023-02-14T06:38:02.430Z,0.3
2023-02-14T06:40:03.169Z,0.2
2023-02-14T06:42:02.977Z,0.3
2023-02-14T06:44:02.688Z,0.2
2023-02-14T06:46:03.453Z,0.2
2023-02-14T06:48:03.418Z,0.2
2023-02-14T06:50:04.688Z,0.2
2023-02-14T06:52:02.489Z,0.2
2023-02-14T06:54:02.402Z,0.2
2023-02-14T06:56:03.534Z,0.2
2023-02-14T06:58:02.382Z,0.2
2023-02-14T07:00:03.300Z,0.2
2023-02-14T07:02:03.436Z,0.2
2023-02-14T07:04:02.474Z,0.3
2023-02-14T07:06:02.467Z,0.3
2023-02-14T07:08:03.531Z,0.3
2023-02-14T07:10:02.430Z,0.3
2023-02-14T07:12:02.575Z,0.2
2023-02-14T07:14:02.479Z,0.2
2023-02-14T07:16:02.483Z,0.2
2023-02-14T07:18:02.466Z,0.2
2023-02-14T07:20:03.568Z,0.2
2023-02-14T07:22:02.643Z,0.2
2023-02-14T07:24:02.609Z,0.3
2023-02-14T07:26:02.622Z,0.3
2023-02-14T07:28:03.208Z,0.3
2023-02-14T07:30:02.487Z,0.3
2023-02-14T07:32:02.934Z,0.3
2023-02-14T07:34:02.529Z,0.3
2023-02-14T07:36:05.826Z,0.3
2023-02-14T07:38:03.066Z,0.3
2023-02-14T07:40:02.512Z,0.3
2023-02-14T07:42:02.405Z,0.3
2023-02-14T07:44:02.815Z,0.3
2023-02-14T07:46:03.752Z,0.3
2023-02-14T07:48:03.846Z,0.3
2023-02-14T07:50:02.450Z,0.3
2023-02-14T07:52:03.535Z,0.4
2023-02-14T07:54:02.408Z,0.4
2023-02-14T07:56:02.831Z,0.4
2023-02-14T07:58:02.448Z,0.4
2023-02-14T08:00:04.176Z,0.4
2023-02-14T08:02:02.536Z,0.5
2023-02-14T08:04:03.065Z,0.5
2023-02-14T08:06:02.482Z,0.5
2023-02-14T08:08:02.912Z,0.5
2023-02-14T08:10:02.432Z,0.5
2023-02-14T08:12:11.841Z,0.5
2023-02-14T08:14:03.380Z,0.5
2023-02-14T08:16:09.116Z,0.5
2023-02-14T08:18:02.507Z,0.5
2023-02-14T08:20:03.133Z,0.6
2023-02-14T08:22:03.302Z,0.6
2023-02-14T08:24:02.557Z,0.6
2023-02-14T08:26:03.078Z,0.6
2023-02-14T08:28:04.164Z,0.6
2023-02-14T08:30:02.645Z,0.6
2023-02-14T08:32:03.202Z,0.6
2023-02-14T08:34:02.450Z,0.6
2023-02-14T08:36:02.939Z,0.6
2023-02-14T08:38:03.373Z,0.6
2023-02-14T08:40:02.453Z,0.6
2023-02-14T08:42:02.409Z,0.6
2023-02-14T08:44:03.896Z,0.6
2023-02-14T08:46:02.747Z,0.6
2023-02-14T08:48:05.344Z,0.6
2023-02-14T08:50:02.519Z,0.5
2023-02-14T08:52:02.446Z,0.5
2023-02-14T08:54:02.403Z,0.4
2023-02-14T08:56:03.670Z,0.4
2023-02-14T08:58:03.418Z,0.4
2023-02-14T09:00:04.123Z,0.4
2023-02-14T09:02:02.460Z,0.4
2023-02-14T09:04:03.708Z,0.4
2023-02-14T09:06:04.343Z,0.4
2023-02-14T09:08:03.986Z,0.3
2023-02-14T09:10:03.304Z,0.3
2023-02-14T09:12:04.683Z,0.3
2023-02-14T09:14:02.535Z,0.3
2023-02-14T09:16:05.160Z,0.3
2023-02-14T09:18:03.088Z,0.3
2023-02-14T09:20:03.771Z,0.3
2023-02-14T09:22:03.872Z,0.3
2023-02-14T09:24:02.486Z,0.3
2023-02-14T09:26:04.381Z,0.3
2023-02-14T09:28:04.073Z,0.3
2023-02-14T09:30:03.672Z,0.3
2023-02-14T09:32:04.678Z,0.3
2023-02-14T09:34:04.370Z,0.3
2023-02-14T09:36:12.118Z,0.2
2023-02-14T09:38:12.119Z,0.2
2023-02-14T09:40:04.216Z,0.2
2023-02-14T09:42:15.345Z,0.2
2023-02-14T09:44:06.248Z,0.2
2023-02-14T09:46:04.692Z,0.2
2023-02-14T09:48:08.142Z,0.2
2023-02-14T09:50:05.671Z,0.3
2023-02-14T09:52:04.541Z,0.2
2023-02-14T09:54:10.766Z,0.2
2023-02-14T09:56:08.308Z,0.2
2023-02-14T09:58:12.188Z,0.2
2023-02-14T10:00:14.388Z,0.2
2023-02-14T10:02:19.281Z,0.2
2023-02-14T10:04:21.120Z,0.1
2023-02-14T10:06:12.433Z,0.1
2023-02-14T10:08:12.609Z,0.1
2023-02-14T10:10:14.250Z,0.1
2023-02-14T10:12:03.734Z,0.1
2023-02-14T10:14:11.199Z,0.1
2023-02-14T10:16:09.783Z,0.1
2023-02-14T10:18:09.500Z,0.1
2023-02-14T10:20:06.792Z,0.0
2023-02-14T10:22:06.738Z,-0.1
2023-02-14T10:24:11.443Z,-0.1
2023-02-14T10:26:05.618Z,-0.1
2023-02-14T10:28:03.570Z,-0.1
2023-02-14T10:30:11.168Z,-0.1
2023-02-14T10:32:04.349Z,-0.1
2023-02-14T10:34:13.845Z,-0.2
2023-02-14T10:36:11.236Z,-0.2
2023-02-14T10:38:16.884Z,-0.1
2023-02-14T10:40:17.520Z,-0.1
2023-02-14T10:42:14.611Z,-0.2
2023-02-14T10:44:21.231Z,-0.2
2023-02-14T10:46:13.075Z,-0.2
2023-02-14T10:48:12.872Z,-0.2
2023-02-14T10:50:11.177Z,-0.2
2023-02-14T10:52:09.391Z,-0.2
2023-02-14T10:54:15.819Z,-0.2
2023-02-14T10:56:07.389Z,-0.2
2023-02-14T10:58:06.524Z,-0.2
2023-02-14T11:00:06.572Z,-0.2
2023-02-14T11:02:04.681Z,-0.2
2023-02-14T11:04:08.135Z,-0.2
2023-02-14T11:06:02.963Z,-0.1
2023-02-14T11:08:03.375Z,-0.2
2023-02-14T11:10:02.466Z,-0.2
2023-02-14T11:12:02.397Z,-0.2
2023-02-14T11:16:05.535Z,-0.2
2023-02-14T11:18:17.577Z,-0.2
2023-02-14T11:20:16.572Z,-0.2
2023-02-14T11:22:02.452Z,-0.2
2023-02-14T11:24:12.867Z,-0.2
2023-02-14T11:26:05.118Z,-0.2
2023-02-14T11:28:06.262Z,-0.2
2023-02-14T11:30:13.118Z,-0.2
2023-02-14T11:32:08.864Z,-0.2
2023-02-14T11:34:05.298Z,-0.2
2023-02-14T11:36:05.061Z,-0.2
2023-02-14T11:38:04.703Z,-0.2
2023-02-14T11:40:04.897Z,-0.2
2023-02-14T11:42:06.049Z,-0.2
2023-02-14T11:44:18.633Z,-0.2
2023-02-14T11:46:14.065Z,-0.2
2023-02-14T11:48:31.422Z,-0.2
2023-02-14T11:50:06.237Z,-0.2
2023-02-14T11:52:11.904Z,-0.2
2023-02-14T11:54:05.603Z,-0.2
2023-02-14T11:56:02.499Z,-0.3
2023-02-14T11:58:04.985Z,-0.2
2023-02-14T12:00:14.131Z,-0.2
2023-02-14T12:02:13.621Z,-0.2
2023-02-14T12:04:07.102Z,-0.2
2023-02-14T12:06:02.708Z,-0.2
2023-02-14T12:08:05.263Z,-0.2
2023-02-14T12:10:19.624Z,-0.2
2023-02-14T12:12:14.310Z,-0.2
2023-02-14T12:14:02.439Z,-0.2
2023-02-14T12:16:03.462Z,-0.3
2023-02-14T12:18:21.464Z,-0.3
2023-02-14T12:20:11.970Z,-0.3
2023-02-14T12:22:05.961Z,-0.3
2023-02-14T12:24:12.409Z,-0.3
2023-02-14T12:26:09.777Z,-0.3
2023-02-14T12:28:10.047Z,-0.3
2023-02-14T12:30:12.232Z,-0.3
2023-02-14T12:32:11.483Z,-0.3
2023-02-14T12:34:04.073Z,-0.4
2023-02-14T12:36:09.259Z,-0.4
2023-02-14T12:38:08.146Z,-0.3
2023-02-14T12:40:11.903Z,-0.3
2023-02-14T12:42:18.759Z,-0.4
2023-02-14T12:44:07.502Z,-0.3
2023-02-14T12:46:20.977Z,-0.3
2023-02-14T12:48:18.680Z,-0.3
2023-02-14T12:50:21.431Z,-0.3
2023-02-14T12:52:11.856Z,-0.3
2023-02-14T12:54:19.280Z,-0.3
2023-02-14T12:56:10.688Z,-0.3
2023-02-14T12:58:13.056Z,-0.3
2023-02-14T13:00:20.470Z,-0.3
2023-02-14T13:02:21.556Z,-0.2
2023-02-14T13:04:17.227Z,-0.2
2023-02-14T13:06:10.192Z,-0.3
2023-02-14T13:08:14.482Z,-0.2
2023-02-14T13:10:12.417Z,-0.2
2023-02-14T13:12:16.320Z,-0.2
2023-02-14T13:14:16.283Z,-0.2
2023-02-14T13:16:08.984Z,-0.2
2023-02-14T13:18:12.894Z,-0.1
2023-02-14T13:20:16.300Z,-0.1
2023-02-14T13:22:05.909Z,-0.1
2023-02-14T13:24:14.840Z,-0.1
2023-02-14T13:26:07.440Z,-0.1
2023-02-14T13:28:06.664Z,-0.1
2023-02-14T13:30:07.514Z,-0.2
2023-02-14T13:32:04.646Z,-0.2
2023-02-14T13:34:08.646Z,-0.2
2023-02-14T13:36:07.516Z,-0.2
2023-02-14T13:38:07.100Z,-0.2
2023-02-14T13:40:07.768Z,-0.2
2023-02-14T13:42:04.300Z,-0.2
2023-02-14T13:44:04.972Z,-0.2
2023-02-14T13:46:02.504Z,-0.2
2023-02-14T13:48:06.111Z,-0.2
2023-02-14T13:50:05.078Z,-0.2
2023-02-14T13:52:04.236Z,-0.2
2023-02-14T13:54:12.634Z,-0.2
2023-02-14T13:56:04.085Z,-0.3
2023-02-14T13:58:05.937Z,-0.3
2023-02-14T14:00:21.421Z,-0.3
2023-02-14T14:02:21.478Z,-0.3
2023-02-14T14:04:05.995Z,-0.3
2023-02-14T14:06:06.114Z,-0.3
2023-02-14T14:08:21.970Z,-0.3
2023-02-14T14:10:04.030Z,-0.3
2023-02-14T14:12:02.484Z,-0.3
2023-02-14T14:14:04.517Z,-0.3
2023-02-14T14:16:20.698Z,-0.3
2023-02-14T14:18:21.444Z,-0.3
2023-02-14T14:20:13.474Z,-0.3
2023-02-14T14:22:05.538Z,-0.3
2023-02-14T14:24:11.845Z,-0.3
2023-02-14T14:26:03.659Z,-0.2
2023-02-14T14:28:10.346Z,-0.2
2023-02-14T14:30:05.584Z,-0.2
2023-02-14T14:32:09.142Z,-0.2
2023-02-14T14:34:02.489Z,-0.2
2023-02-14T14:36:07.820Z,-0.2
2023-02-14T14:38:02.510Z,-0.2
2023-02-14T14:40:06.077Z,-0.2
2023-02-14T14:42:07.527Z,-0.2
2023-02-14T14:44:06.310Z,-0.2
2023-02-14T14:46:04.072Z,-0.2
2023-02-14T14:48:09.995Z,-0.2
2023-02-14T14:50:07.212Z,-0.2
2023-02-14T14:52:16.138Z,-0.2
2023-02-14T14:54:06.033Z,-0.3
2023-02-14T14:56:03.315Z,-0.3
2023-02-14T14:58:04.349Z,-0.2
2023-02-14T15:00:17.468Z,-0.3
2023-02-14T15:02:03.821Z,-0.2
2023-02-14T15:04:12.282Z,-0.3
2023-02-14T15:06:08.152Z,-0.2
2023-02-14T15:08:14.979Z,-0.3
2023-02-14T15:10:03.961Z,-0.3
2023-02-14T15:12:12.884Z,-0.3
2023-02-14T15:14:05.723Z,-0.3
2023-02-14T15:16:03.972Z,-0.3
2023-02-14T15:18:06.820Z,-0.3
2023-02-14T15:20:06.919Z,-0.3
2023-02-14T15:22:05.424Z,-0.3
2023-02-14T15:24:03.396Z,-0.3
2023-02-14T15:26:03.280Z,-0.3
2023-02-14T15:28:03.628Z,-0.3
2023-02-14T15:30:08.434Z,-0.3
2023-02-14T15:32:03.556Z,-0.3
2023-02-14T15:34:05.235Z,-0.3
2023-02-14T15:36:05.200Z,-0.3
2023-02-14T15:38:05.270Z,-0.3
2023-02-14T15:40:03.128Z,-0.3
2023-02-14T15:42:02.507Z,-0.3
2023-02-14T15:44:03.726Z,-0.4
2023-02-14T15:46:16.382Z,-0.4
2023-02-14T15:48:05.748Z,-0.4
2023-02-14T15:50:02.885Z,-0.4
2023-02-14T15:52:05.687Z,-0.4
2023-02-14T15:54:07.128Z,-0.4
2023-02-14T15:56:06.958Z,-0.4
2023-02-14T15:58:05.925Z,-0.4
2023-02-14T16:00:06.264Z,-0.5
2023-02-14T16:02:13.865Z,-0.4
2023-02-14T16:04:06.419Z,-0.5
2023-02-14T16:06:04.450Z,-0.5
2023-02-14T16:08:04.742Z,-0.5
2023-02-14T16:10:19.475Z,-0.5
2023-02-14T16:12:19.659Z,-0.4
2023-02-14T16:14:21.440Z,-0.5
2023-02-14T16:16:06.142Z,-0.5
2023-02-14T16:18:08.127Z,-0.5
2023-02-14T16:20:22.428Z,-0.5
2023-02-14T16:22:02.531Z,-0.5
2023-02-14T16:24:11.677Z,-0.5
2023-02-14T16:26:02.488Z,-0.6
2023-02-14T16:28:03.185Z,-0.5
2023-02-14T16:30:02.443Z,-0.5
2023-02-14T16:32:16.789Z,-0.5
2023-02-14T16:34:02.415Z,-0.5
2023-02-14T16:36:08.821Z,-0.4
2023-02-14T16:38:03.031Z,-0.4
2023-02-14T16:40:03.738Z,-0.4
2023-02-14T16:42:04.684Z,-0.4
2023-02-14T16:44:03.624Z,-0.4
2023-02-14T16:46:02.555Z,-0.4
2023-02-14T16:48:02.931Z,-0.4
2023-02-14T16:50:02.631Z,-0.4
2023-02-14T16:52:02.717Z,-0.3
2023-02-14T16:54:06.712Z,-0.3
2023-02-14T16:56:03.384Z,-0.3
2023-02-14T16:58:03.652Z,-0.2
2023-02-14T17:00:04.714Z,-0.2
2023-02-14T17:02:02.435Z,-0.2
2023-02-14T17:04:02.800Z,-0.2
2023-02-14T17:06:04.084Z,-0.1
2023-02-14T17:08:04.710Z,-0.1
2023-02-14T17:10:06.062Z,-0.1
2023-02-14T17:12:06.403Z,-0.1
2023-02-14T17:14:02.558Z,0.0
2023-02-14T17:16:05.931Z,0.1
2023-02-14T17:18:08.876Z,0.1
2023-02-14T17:20:04.505Z,0.1
2023-02-14T17:22:04.106Z,0.2
2023-02-14T17:24:03.648Z,0.2
2023-02-14T17:26:02.396Z,0.2
2023-02-14T17:28:02.765Z,0.2
2023-02-14T17:30:02.525Z,0.1
2023-02-14T17:32:03.353Z,0.1
2023-02-14T17:34:02.643Z,0.1
2023-02-14T17:36:06.276Z,0.1
2023-02-14T17:38:04.108Z,0.1
2023-02-14T17:40:03.340Z,0.1
2023-02-14T17:42:02.387Z,0.1
2023-02-14T17:44:02.757Z,0.1
2023-02-14T17:46:05.027Z,0.2
2023-02-14T17:48:02.497Z,0.2
2023-02-14T17:50:03.459Z,0.2
2023-02-14T17:52:02.664Z,0.3
2023-02-14T17:54:02.952Z,0.3
2023-02-14T17:56:08.440Z,0.3
2023-02-14T17:58:02.386Z,0.3
2023-02-14T18:00:05.417Z,0.2
2023-02-14T18:02:03.396Z,0.2
2023-02-14T18:04:04.202Z,0.3
2023-02-14T18:06:04.095Z,0.5
2023-02-14T18:08:03.412Z,0.5
2023-02-14T18:10:02.441Z,0.4
2023-02-14T18:12:02.601Z,0.4
2023-02-14T18:14:04.138Z,0.3
2023-02-14T18:16:05.046Z,0.2
2023-02-14T18:18:02.364Z,0.2
2023-02-14T18:20:04.913Z,0.2
2023-02-14T18:22:02.745Z,0.2
2023-02-14T18:24:03.198Z,0.2
2023-02-14T18:26:04.756Z,0.2
2023-02-14T18:28:04.348Z,0.2
2023-02-14T18:30:02.533Z,0.2
2023-02-14T18:32:04.449Z,0.3
2023-02-14T18:34:02.672Z,0.3
2023-02-14T18:36:03.892Z,0.3
2023-02-14T18:38:03.038Z,0.4
2023-02-14T18:40:02.709Z,0.4
2023-02-14T18:42:04.154Z,0.6
2023-02-14T18:44:03.844Z,0.7
2023-02-14T18:46:05.356Z,0.9
2023-02-14T18:48:02.503Z,1.2
2023-02-14T18:50:02.946Z,1.2
2023-02-14T18:52:04.605Z,1.3
2023-02-14T18:54:04.374Z,1.5
2023-02-14T18:56:05.551Z,1.8
2023-02-14T18:58:02.435Z,2.1
2023-02-14T19:00:06.381Z,2.1
2023-02-14T19:02:02.633Z,2.2
2023-02-14T19:04:05.641Z,2.2
2023-02-14T19:06:03.522Z,2.2
2023-02-14T19:08:03.157Z,1.9
2023-02-14T19:10:03.920Z,1.8
2023-02-14T19:12:02.404Z,1.8
2023-02-14T19:14:04.824Z,1.8
2023-02-14T19:16:09.545Z,1.9
2023-02-14T19:18:02.408Z,1.8
2023-02-14T19:20:08.062Z,1.8
2023-02-14T19:22:02.430Z,1.9
2023-02-14T19:24:06.872Z,1.9
2023-02-14T19:26:10.928Z,2.1
2023-02-14T19:28:02.702Z,2.1
2023-02-14T19:30:02.537Z,2.1
2023-02-14T19:32:02.753Z,2.2
2023-02-14T19:34:04.608Z,2.3
2023-02-14T19:36:05.141Z,2.4
2023-02-14T19:38:03.129Z,2.4
2023-02-14T19:40:02.607Z,2.4
2023-02-14T19:42:04.798Z,2.4
2023-02-14T19:44:05.027Z,2.4
2023-02-14T19:46:05.421Z,2.4
2023-02-14T19:48:03.147Z,2.5
2023-02-14T19:50:03.548Z,2.5
2023-02-14T19:52:04.855Z,2.6
2023-02-14T19:54:05.233Z,2.6
2023-02-14T19:56:02.827Z,2.6
2023-02-14T19:58:02.487Z,2.7
2023-02-14T20:00:03.611Z,2.7
2023-02-14T20:02:02.593Z,2.7
2023-02-14T20:04:03.253Z,2.7
2023-02-14T20:06:02.903Z,2.7
2023-02-14T20:08:02.992Z,2.7
2023-02-14T20:10:02.402Z,2.7
2023-02-14T20:12:03.060Z,2.7
2023-02-14T20:14:05.759Z,2.8
2023-02-14T20:16:02.583Z,2.8
2023-02-14T20:18:02.723Z,2.9
2023-02-14T20:20:05.153Z,3.1
2023-02-14T20:22:02.460Z,3.4
2023-02-14T20:24:04.017Z,3.6
2023-02-14T20:26:02.657Z,3.8
2023-02-14T20:28:02.584Z,4.1
2023-02-14T20:30:03.459Z,3.9
2023-02-14T20:32:04.470Z,3.7
2023-02-14T20:34:03.496Z,3.8
2023-02-14T20:36:04.718Z,3.8
2023-02-14T20:38:07.011Z,3.7
2023-02-14T20:40:03.703Z,3.6
2023-02-14T20:42:02.913Z,3.6
2023-02-14T20:44:04.728Z,3.6
2023-02-14T20:46:04.069Z,3.6
2023-02-14T20:48:03.830Z,3.6
2023-02-14T20:50:03.104Z,3.6
2023-02-14T20:52:03.329Z,3.6
2023-02-14T20:54:03.770Z,3.6
2023-02-14T20:56:02.702Z,3.6
2023-02-14T20:58:02.411Z,3.6
2023-02-14T21:00:02.393Z,3.5
2023-02-14T21:02:02.429Z,3.4
2023-02-14T21:04:03.412Z,3.4
2023-02-14T21:06:04.249Z,3.4
2023-02-14T21:08:02.636Z,3.4
2023-02-14T21:10:02.421Z,3.4
2023-02-14T21:12:02.395Z,3.4
2023-02-14T21:14:03.657Z,3.4
2023-02-14T21:16:03.759Z,3.3
2023-02-14T21:18:02.405Z,3.3
2023-02-14T21:20:02.642Z,3.3
2023-02-14T21:22:02.542Z,3.4
2023-02-14T21:24:06.368Z,3.4
2023-02-14T21:26:02.520Z,3.4
2023-02-14T21:28:02.573Z,3.4
2023-02-14T21:30:03.131Z,3.4
2023-02-14T21:32:03.814Z,3.4
2023-02-14T21:34:04.343Z,3.3
2023-02-14T21:36:06.413Z,3.3
2023-02-14T21:38:02.397Z,3.3
2023-02-14T21:40:03.267Z,3.3
2023-02-14T21:42:02.458Z,3.3
2023-02-14T21:44:04.672Z,3.3
2023-02-14T21:46:04.648Z,3.3
2023-02-14T21:48:11.822Z,3.3
2023-02-14T21:50:11.867Z,3.3
2023-02-14T21:52:03.587Z,3.3
2023-02-14T21:54:02.391Z,3.3
2023-02-14T21:56:06.752Z,3.2
2023-02-14T21:58:03.198Z,3.2
2023-02-14T22:00:03.386Z,3.3
2023-02-14T22:02:02.428Z,3.3
2023-02-14T22:04:08.582Z,3.3
2023-02-14T22:06:03.605Z,3.4
2023-02-14T22:08:02.690Z,3.4
2023-02-14T22:10:02.913Z,3.4
2023-02-14T22:12:02.962Z,3.5
2023-02-14T22:14:03.667Z,3.6
2023-02-14T22:16:04.118Z,3.7
2023-02-14T22:18:02.964Z,3.7
2023-02-14T22:20:05.633Z,3.7
2023-02-14T22:22:03.178Z,3.7
2023-02-14T22:24:02.497Z,3.7
2023-02-14T22:26:09.475Z,3.8
2023-02-14T22:28:02.598Z,3.7
2023-02-14T22:30:02.408Z,3.8
2023-02-14T22:32:03.041Z,3.7
2023-02-14T22:34:03.184Z,3.7
2023-02-14T22:36:03.839Z,3.7
2023-02-14T22:38:03.144Z,3.6
2023-02-14T22:40:03.711Z,3.6
2023-02-14T22:42:06.296Z,3.7
2023-02-14T22:44:02.677Z,3.6
2023-02-14T22:46:04.215Z,3.6
2023-02-14T22:48:02.998Z,3.6
2023-02-14T22:50:02.578Z,3.6
2023-02-14T22:52:02.575Z,3.6
2023-02-14T22:54:05.780Z,3.6
2023-02-14T22:56:11.460Z,3.7
2023-02-14T22:58:02.378Z,3.7
2023-02-14T23:00:02.428Z,3.7
2023-02-14T23:02:02.525Z,3.7
2023-02-14T23:04:04.526Z,3.7
2023-02-14T23:06:03.065Z,3.7
2023-02-14T23:08:02.597Z,3.7
2023-02-14T23:10:02.435Z,3.7
2023-02-14T23:12:02.613Z,3.7
2023-02-14T23:14:13.543Z,3.7
2023-02-14T23:16:12.674Z,3.7
2023-02-14T23:18:12.396Z,3.8
2023-02-14T23:20:11.881Z,3.8
2023-02-14T23:22:05.274Z,3.8
2023-02-14T23:24:02.415Z,3.7
2023-02-14T23:26:02.753Z,3.8
2023-02-14T23:28:03.315Z,3.7
2023-02-14T23:30:04.980Z,3.7
2023-02-14T23:32:03.704Z,3.7
2023-02-14T23:34:02.406Z,3.7
2023-02-14T23:36:03.457Z,3.7
2023-02-14T23:38:02.481Z,3.6
2023-02-14T23:40:03.759Z,3.6
2023-02-14T23:42:02.386Z,3.6
2023-02-14T23:44:02.601Z,3.6
2023-02-14T23:46:02.789Z,3.5
2023-02-14T23:48:04.714Z,3.5
2023-02-14T23:50:02.423Z,3.4
2023-02-14T23:52:05.991Z,3.4
2023-02-14T23:54:02.423Z,3.3
2023-02-14T23:56:04.006Z,3.3
2023-02-14T23:58:02.498Z,3.3
